sensor_id;sensor_type;location;lat;lon;timestamp;temperature;humidity
35129;DHT22;21301;43.626;10.580;2023-08-07T00:00:19;20.30;99.90
35129;DHT22;21301;43.626;10.580;2023-08-07T00:02:47;20.20;99.90
35129;DHT22;21301;43.626;10.580;2023-08-07T00:05:15;20.00;99.90
35129;DHT22;21301;43.626;10.580;2023-08-07T00:07:45;20.40;99.90
35129;DHT22;21301;43.626;10.580;2023-08-07T00:10:11;20.20;99.90
35129;DHT22;21301;43.626;10.580;2023-08-07T00:12:37;20.00;99.90
35129;DHT22;21301;43.626;10.580;2023-08-07T00:15:08;19.60;99.90
35129;DHT22;21301;43.626;10.580;2023-08-07T00:17:41;19.50;99.90
35129;DHT22;21301;43.626;10.580;2023-08-07T00:20:14;19.20;99.90
35129;DHT22;21301;43.626;10.580;2023-08-07T00:22:47;19.10;99.90
35129;DHT22;21301;43.626;10.580;2023-08-07T00:25:15;19.10;99.90
35129;DHT22;21301;43.626;10.580;2023-08-07T00:27:42;19.10;99.90
35129;DHT22;21301;43.626;10.580;2023-08-07T00:30:24;19.20;99.90
35129;DHT22;21301;43.626;10.580;2023-08-07T00:32:57;19.20;99.90
35129;DHT22;21301;43.626;10.580;2023-08-07T00:35:27;19.40;99.90
35129;DHT22;21301;43.626;10.580;2023-08-07T00:37:53;19.60;99.90
35129;DHT22;21301;43.626;10.580;2023-08-07T00:40:25;19.70;99.90
35129;DHT22;21301;43.626;10.580;2023-08-07T00:42:59;19.70;99.90
35129;DHT22;21301;43.626;10.580;2023-08-07T00:45:32;19.50;99.90
35129;DHT22;21301;43.626;10.580;2023-08-07T00:48:05;19.20;99.90
35129;DHT22;21301;43.626;10.580;2023-08-07T00:50:35;19.10;99.90
35129;DHT22;21301;43.626;10.580;2023-08-07T00:53:04;19.10;99.90
35129;DHT22;21301;43.626;10.580;2023-08-07T00:55:40;19.10;99.90
35129;DHT22;21301;43.626;10.580;2023-08-07T00:58:07;19.10;99.90
35129;DHT22;21301;43.626;10.580;2023-08-07T01:00:37;19.10;99.90
35129;DHT22;21301;43.626;10.580;2023-08-07T01:03:06;19.20;99.90
35129;DHT22;21301;43.626;10.580;2023-08-07T01:05:34;19.40;99.90
35129;DHT22;21301;43.626;10.580;2023-08-07T01:08:09;19.50;99.90
35129;DHT22;21301;43.626;10.580;2023-08-07T01:16:14;19.30;99.90
35129;DHT22;21301;43.626;10.580;2023-08-07T01:18:47;19.10;99.90
35129;DHT22;21301;43.626;10.580;2023-08-07T01:21:18;19.00;99.90
35129;DHT22;21301;43.626;10.580;2023-08-07T01:23:58;18.90;99.90
35129;DHT22;21301;43.626;10.580;2023-08-07T01:26:34;18.80;99.90
35129;DHT22;21301;43.626;10.580;2023-08-07T01:29:14;18.80;99.90
35129;DHT22;21301;43.626;10.580;2023-08-07T01:31:54;19.00;99.90
35129;DHT22;21301;43.626;10.580;2023-08-07T01:34:25;19.10;99.90
35129;DHT22;21301;43.626;10.580;2023-08-07T01:36:57;19.40;99.90
35129;DHT22;21301;43.626;10.580;2023-08-07T01:39:24;19.40;99.90
35129;DHT22;21301;43.626;10.580;2023-08-07T01:41:51;19.50;99.90
35129;DHT22;21301;43.626;10.580;2023-08-07T01:44:18;19.30;99.90
35129;DHT22;21301;43.626;10.580;2023-08-07T01:46:47;19.20;99.90
35129;DHT22;21301;43.626;10.580;2023-08-07T01:49:13;18.90;99.90
35129;DHT22;21301;43.626;10.580;2023-08-07T01:51:45;18.90;99.90
35129;DHT22;21301;43.626;10.580;2023-08-07T01:54:11;18.90;99.90
35129;DHT22;21301;43.626;10.580;2023-08-07T01:56:56;19.10;99.90
35129;DHT22;21301;43.626;10.580;2023-08-07T01:59:36;19.20;99.90
35129;DHT22;21301;43.626;10.580;2023-08-07T02:02:17;19.20;99.90
35129;DHT22;21301;43.626;10.580;2023-08-07T02:07:51;18.60;99.90
35129;DHT22;21301;43.626;10.580;2023-08-07T02:10:31;18.40;99.90
35129;DHT22;21301;43.626;10.580;2023-08-07T02:12:58;18.30;99.90
35129;DHT22;21301;43.626;10.580;2023-08-07T02:15:32;18.30;99.90
35129;DHT22;21301;43.626;10.580;2023-08-07T02:18:06;18.50;99.90
35129;DHT22;21301;43.626;10.580;2023-08-07T02:20:33;18.70;99.90
35129;DHT22;21301;43.626;10.580;2023-08-07T02:23:07;19.10;99.90
35129;DHT22;21301;43.626;10.580;2023-08-07T02:25:34;19.30;99.90
35129;DHT22;21301;43.626;10.580;2023-08-07T02:28:02;19.10;99.90
35129;DHT22;21301;43.626;10.580;2023-08-07T02:30:31;19.10;99.90
35129;DHT22;21301;43.626;10.580;2023-08-07T02:33:04;19.40;99.90
35129;DHT22;21301;43.626;10.580;2023-08-07T02:35:33;19.50;99.90
35129;DHT22;21301;43.626;10.580;2023-08-07T02:38:04;19.60;99.90
35129;DHT22;21301;43.626;10.580;2023-08-07T02:40:30;19.50;99.90
35129;DHT22;21301;43.626;10.580;2023-08-07T02:42:56;19.70;99.90
35129;DHT22;21301;43.626;10.580;2023-08-07T02:45:26;19.60;99.90
35129;DHT22;21301;43.626;10.580;2023-08-07T02:47:53;19.70;99.90
35129;DHT22;21301;43.626;10.580;2023-08-07T02:50:21;20.00;99.90
35129;DHT22;21301;43.626;10.580;2023-08-07T02:52:48;19.80;99.90
35129;DHT22;21301;43.626;10.580;2023-08-07T02:55:18;19.40;99.90
35129;DHT22;21301;43.626;10.580;2023-08-07T02:57:49;19.20;99.90
35129;DHT22;21301;43.626;10.580;2023-08-07T03:00:15;18.90;99.90
35129;DHT22;21301;43.626;10.580;2023-08-07T03:02:41;18.80;99.90
35129;DHT22;21301;43.626;10.580;2023-08-07T03:05:08;18.70;99.90
35129;DHT22;21301;43.626;10.580;2023-08-07T03:07:34;18.60;99.90
35129;DHT22;21301;43.626;10.580;2023-08-07T03:10:01;18.50;99.90
35129;DHT22;21301;43.626;10.580;2023-08-07T03:12:28;18.40;99.90
35129;DHT22;21301;43.626;10.580;2023-08-07T03:14:54;18.30;99.90
35129;DHT22;21301;43.626;10.580;2023-08-07T03:17:21;18.20;99.90
35129;DHT22;21301;43.626;10.580;2023-08-07T03:19:48;18.00;99.90
35129;DHT22;21301;43.626;10.580;2023-08-07T03:22:34;18.00;99.90
35129;DHT22;21301;43.626;10.580;2023-08-07T03:25:01;17.60;99.90
35129;DHT22;21301;43.626;10.580;2023-08-07T03:27:33;17.50;99.90
35129;DHT22;21301;43.626;10.580;2023-08-07T03:30:07;17.50;99.90
35129;DHT22;21301;43.626;10.580;2023-08-07T03:32:49;17.50;99.90
35129;DHT22;21301;43.626;10.580;2023-08-07T03:35:18;17.50;99.90
35129;DHT22;21301;43.626;10.580;2023-08-07T03:37:54;17.40;99.90
35129;DHT22;21301;43.626;10.580;2023-08-07T03:41:04;17.40;99.90
35129;DHT22;21301;43.626;10.580;2023-08-07T03:43:42;17.20;99.90
35129;DHT22;21301;43.626;10.580;2023-08-07T03:46:17;17.40;99.90
35129;DHT22;21301;43.626;10.580;2023-08-07T03:48:44;17.20;99.90
35129;DHT22;21301;43.626;10.580;2023-08-07T03:51:13;16.90;99.90
35129;DHT22;21301;43.626;10.580;2023-08-07T03:54:09;17.10;99.90
35129;DHT22;21301;43.626;10.580;2023-08-07T03:56:35;17.10;99.90
35129;DHT22;21301;43.626;10.580;2023-08-07T03:59:21;17.20;99.90
35129;DHT22;21301;43.626;10.580;2023-08-07T04:01:55;17.20;99.90
35129;DHT22;21301;43.626;10.580;2023-08-07T04:04:21;17.30;99.90
35129;DHT22;21301;43.626;10.580;2023-08-07T04:06:53;17.30;99.90
35129;DHT22;21301;43.626;10.580;2023-08-07T04:09:27;17.50;99.90
35129;DHT22;21301;43.626;10.580;2023-08-07T04:11:57;17.50;99.90
35129;DHT22;21301;43.626;10.580;2023-08-07T04:14:23;17.40;99.90
35129;DHT22;21301;43.626;10.580;2023-08-07T04:16:57;17.30;99.90
35129;DHT22;21301;43.626;10.580;2023-08-07T04:20:08;17.40;99.90
35129;DHT22;21301;43.626;10.580;2023-08-07T04:22:35;17.30;99.90
35129;DHT22;21301;43.626;10.580;2023-08-07T04:25:02;17.40;99.90
35129;DHT22;21301;43.626;10.580;2023-08-07T04:27:28;17.30;99.90
35129;DHT22;21301;43.626;10.580;2023-08-07T04:30:15;17.20;99.90
35129;DHT22;21301;43.626;10.580;2023-08-07T04:32:44;16.90;99.90
35129;DHT22;21301;43.626;10.580;2023-08-07T04:35:30;16.80;99.90
35129;DHT22;21301;43.626;10.580;2023-08-07T04:37:57;16.70;99.90
35129;DHT22;21301;43.626;10.580;2023-08-07T04:40:35;16.80;99.90
35129;DHT22;21301;43.626;10.580;2023-08-07T04:43:16;16.80;99.90
35129;DHT22;21301;43.626;10.580;2023-08-07T04:46:09;16.90;99.90
35129;DHT22;21301;43.626;10.580;2023-08-07T04:48:36;17.10;99.90
35129;DHT22;21301;43.626;10.580;2023-08-07T04:51:08;17.40;99.90
35129;DHT22;21301;43.626;10.580;2023-08-07T04:53:35;17.60;99.90
35129;DHT22;21301;43.626;10.580;2023-08-07T04:56:03;17.50;99.90
35129;DHT22;21301;43.626;10.580;2023-08-07T04:58:39;17.60;99.90
35129;DHT22;21301;43.626;10.580;2023-08-07T05:01:07;17.40;99.90
35129;DHT22;21301;43.626;10.580;2023-08-07T05:03:41;17.40;99.90
35129;DHT22;21301;43.626;10.580;2023-08-07T05:06:16;17.40;99.90
35129;DHT22;21301;43.626;10.580;2023-08-07T05:08:46;17.40;99.90
35129;DHT22;21301;43.626;10.580;2023-08-07T05:11:21;17.40;99.90
35129;DHT22;21301;43.626;10.580;2023-08-07T05:13:49;17.50;99.90
35129;DHT22;21301;43.626;10.580;2023-08-07T05:16:41;17.40;99.90
35129;DHT22;21301;43.626;10.580;2023-08-07T05:19:08;17.30;99.90
35129;DHT22;21301;43.626;10.580;2023-08-07T05:21:42;17.50;99.90
35129;DHT22;21301;43.626;10.580;2023-08-07T05:24:08;17.80;99.90
35129;DHT22;21301;43.626;10.580;2023-08-07T05:26:35;18.10;99.90
35129;DHT22;21301;43.626;10.580;2023-08-07T05:29:01;18.30;99.90
35129;DHT22;21301;43.626;10.580;2023-08-07T05:31:28;18.30;99.90
35129;DHT22;21301;43.626;10.580;2023-08-07T05:33:57;18.50;99.90
35129;DHT22;21301;43.626;10.580;2023-08-07T05:36:23;18.60;99.90
35129;DHT22;21301;43.626;10.580;2023-08-07T05:38:50;18.70;99.90
35129;DHT22;21301;43.626;10.580;2023-08-07T05:41:16;18.70;99.90
35129;DHT22;21301;43.626;10.580;2023-08-07T05:43:42;19.10;99.90
35129;DHT22;21301;43.626;10.580;2023-08-07T05:46:08;19.20;99.90
35129;DHT22;21301;43.626;10.580;2023-08-07T05:48:34;19.30;99.90
35129;DHT22;21301;43.626;10.580;2023-08-07T05:51:01;19.40;99.90
35129;DHT22;21301;43.626;10.580;2023-08-07T05:53:27;19.30;99.90
35129;DHT22;21301;43.626;10.580;2023-08-07T05:55:59;19.40;99.90
35129;DHT22;21301;43.626;10.580;2023-08-07T05:58:25;19.60;99.90
35129;DHT22;21301;43.626;10.580;2023-08-07T06:00:56;19.80;99.90
35129;DHT22;21301;43.626;10.580;2023-08-07T06:03:25;20.10;99.90
35129;DHT22;21301;43.626;10.580;2023-08-07T06:05:53;20.00;99.90
35129;DHT22;21301;43.626;10.580;2023-08-07T06:08:20;20.20;99.90
35129;DHT22;21301;43.626;10.580;2023-08-07T06:10:48;20.60;99.90
35129;DHT22;21301;43.626;10.580;2023-08-07T06:13:18;20.80;99.90
35129;DHT22;21301;43.626;10.580;2023-08-07T06:15:45;20.70;99.90
35129;DHT22;21301;43.626;10.580;2023-08-07T06:18:11;21.10;99.90
35129;DHT22;21301;43.626;10.580;2023-08-07T06:20:36;21.30;99.90
35129;DHT22;21301;43.626;10.580;2023-08-07T06:23:02;21.60;99.90
35129;DHT22;21301;43.626;10.580;2023-08-07T06:25:31;21.60;99.90
35129;DHT22;21301;43.626;10.580;2023-08-07T06:27:57;21.70;99.90
35129;DHT22;21301;43.626;10.580;2023-08-07T06:30:24;21.90;99.90
35129;DHT22;21301;43.626;10.580;2023-08-07T06:32:52;22.20;99.90
35129;DHT22;21301;43.626;10.580;2023-08-07T06:35:18;22.90;99.90
35129;DHT22;21301;43.626;10.580;2023-08-07T06:37:46;22.80;99.90
35129;DHT22;21301;43.626;10.580;2023-08-07T06:40:12;22.30;99.90
35129;DHT22;21301;43.626;10.580;2023-08-07T06:42:38;22.10;99.90
35129;DHT22;21301;43.626;10.580;2023-08-07T06:45:05;22.00;99.90
35129;DHT22;21301;43.626;10.580;2023-08-07T06:47:38;22.40;99.90
35129;DHT22;21301;43.626;10.580;2023-08-07T06:50:06;22.30;99.90
35129;DHT22;21301;43.626;10.580;2023-08-07T06:52:40;22.20;99.90
35129;DHT22;21301;43.626;10.580;2023-08-07T06:55:10;22.10;99.90
35129;DHT22;21301;43.626;10.580;2023-08-07T06:57:37;22.00;99.90
35129;DHT22;21301;43.626;10.580;2023-08-07T07:00:07;22.00;99.90
35129;DHT22;21301;43.626;10.580;2023-08-07T07:02:41;22.20;99.90
35129;DHT22;21301;43.626;10.580;2023-08-07T07:05:09;22.20;99.90
35129;DHT22;21301;43.626;10.580;2023-08-07T07:07:35;22.30;99.90
35129;DHT22;21301;43.626;10.580;2023-08-07T07:10:23;22.40;99.90
35129;DHT22;21301;43.626;10.580;2023-08-07T07:17:03;22.50;99.90
35129;DHT22;21301;43.626;10.580;2023-08-07T07:19:32;22.60;99.90
35129;DHT22;21301;43.626;10.580;2023-08-07T07:21:58;22.90;99.90
35129;DHT22;21301;43.626;10.580;2023-08-07T07:24:25;23.20;99.90
35129;DHT22;21301;43.626;10.580;2023-08-07T07:26:53;23.30;99.90
35129;DHT22;21301;43.626;10.580;2023-08-07T07:29:20;23.20;99.90
35129;DHT22;21301;43.626;10.580;2023-08-07T07:31:49;23.70;99.90
35129;DHT22;21301;43.626;10.580;2023-08-07T07:34:16;24.30;99.90
35129;DHT22;21301;43.626;10.580;2023-08-07T07:36:48;24.90;99.90
35129;DHT22;21301;43.626;10.580;2023-08-07T07:39:14;25.00;99.90
35129;DHT22;21301;43.626;10.580;2023-08-07T07:41:43;24.30;99.90
35129;DHT22;21301;43.626;10.580;2023-08-07T07:44:11;23.90;99.90
35129;DHT22;21301;43.626;10.580;2023-08-07T07:46:39;24.10;99.90
35129;DHT22;21301;43.626;10.580;2023-08-07T07:49:07;24.20;99.90
35129;DHT22;21301;43.626;10.580;2023-08-07T07:51:58;25.10;99.90
35129;DHT22;21301;43.626;10.580;2023-08-07T07:58:10;25.80;91.10
35129;DHT22;21301;43.626;10.580;2023-08-07T08:00:37;26.20;86.20
35129;DHT22;21301;43.626;10.580;2023-08-07T08:03:03;26.50;30.40
35129;DHT22;21301;43.626;10.580;2023-08-07T08:05:35;27.10;99.90
35129;DHT22;21301;43.626;10.580;2023-08-07T08:08:01;27.30;1.00
35129;DHT22;21301;43.626;10.580;2023-08-07T08:10:32;27.80;28.30
35129;DHT22;21301;43.626;10.580;2023-08-07T08:13:01;27.50;1.00
35129;DHT22;21301;43.626;10.580;2023-08-07T08:15:30;27.80;13.10
35129;DHT22;21301;43.626;10.580;2023-08-07T08:17:56;28.10;99.90
35129;DHT22;21301;43.626;10.580;2023-08-07T08:20:28;28.00;99.90
35129;DHT22;21301;43.626;10.580;2023-08-07T08:22:56;28.00;99.90
35129;DHT22;21301;43.626;10.580;2023-08-07T08:25:22;28.20;99.90
35129;DHT22;21301;43.626;10.580;2023-08-07T08:27:51;28.20;99.90
35129;DHT22;21301;43.626;10.580;2023-08-07T08:30:17;28.30;99.90
35129;DHT22;21301;43.626;10.580;2023-08-07T08:32:45;28.40;99.90
35129;DHT22;21301;43.626;10.580;2023-08-07T08:35:19;28.10;99.90
35129;DHT22;21301;43.626;10.580;2023-08-07T08:37:47;28.30;92.10
35129;DHT22;21301;43.626;10.580;2023-08-07T08:40:38;28.30;99.90
35129;DHT22;21301;43.626;10.580;2023-08-07T08:43:05;28.70;99.90
35129;DHT22;21301;43.626;10.580;2023-08-07T08:45:44;29.20;1.00
35129;DHT22;21301;43.626;10.580;2023-08-07T08:48:19;29.30;99.90
35129;DHT22;21301;43.626;10.580;2023-08-07T08:50:51;29.50;99.90
35129;DHT22;21301;43.626;10.580;2023-08-07T08:53:20;29.50;99.90
35129;DHT22;21301;43.626;10.580;2023-08-07T08:55:50;29.90;99.90
35129;DHT22;21301;43.626;10.580;2023-08-07T08:58:17;29.70;99.90
35129;DHT22;21301;43.626;10.580;2023-08-07T09:00:46;30.10;99.90
35129;DHT22;21301;43.626;10.580;2023-08-07T09:03:15;30.20;99.90
35129;DHT22;21301;43.626;10.580;2023-08-07T09:05:43;30.30;99.90
35129;DHT22;21301;43.626;10.580;2023-08-07T09:08:11;30.30;99.90
35129;DHT22;21301;43.626;10.580;2023-08-07T09:10:38;30.40;99.90
35129;DHT22;21301;43.626;10.580;2023-08-07T09:13:10;30.70;99.90
35129;DHT22;21301;43.626;10.580;2023-08-07T09:15:38;29.40;99.90
35129;DHT22;21301;43.626;10.580;2023-08-07T09:18:06;29.70;99.90
35129;DHT22;21301;43.626;10.580;2023-08-07T09:20:39;29.50;99.90
35129;DHT22;21301;43.626;10.580;2023-08-07T09:23:11;29.80;99.90
35129;DHT22;21301;43.626;10.580;2023-08-07T09:25:41;30.00;99.90
35129;DHT22;21301;43.626;10.580;2023-08-07T09:28:09;29.80;99.90
35129;DHT22;21301;43.626;10.580;2023-08-07T09:30:39;29.60;99.90
35129;DHT22;21301;43.626;10.580;2023-08-07T09:33:11;29.90;99.90
35129;DHT22;21301;43.626;10.580;2023-08-07T09:35:40;30.50;99.90
35129;DHT22;21301;43.626;10.580;2023-08-07T09:38:07;30.90;99.90
35129;DHT22;21301;43.626;10.580;2023-08-07T09:40:34;30.60;99.90
35129;DHT22;21301;43.626;10.580;2023-08-07T09:43:02;30.70;99.90
35129;DHT22;21301;43.626;10.580;2023-08-07T09:45:41;31.10;99.90
35129;DHT22;21301;43.626;10.580;2023-08-07T09:48:26;31.10;99.90
35129;DHT22;21301;43.626;10.580;2023-08-07T09:51:02;31.10;99.90
35129;DHT22;21301;43.626;10.580;2023-08-07T09:53:37;31.40;99.90
35129;DHT22;21301;43.626;10.580;2023-08-07T09:56:32;31.70;99.90
35129;DHT22;21301;43.626;10.580;2023-08-07T09:59:00;31.90;99.90
35129;DHT22;21301;43.626;10.580;2023-08-07T10:01:32;31.80;99.90
35129;DHT22;21301;43.626;10.580;2023-08-07T10:03:59;31.60;99.90
35129;DHT22;21301;43.626;10.580;2023-08-07T10:06:26;31.20;99.30
35129;DHT22;21301;43.626;10.580;2023-08-07T10:08:56;31.00;99.90
35129;DHT22;21301;43.626;10.580;2023-08-07T10:11:23;30.50;99.90
35129;DHT22;21301;43.626;10.580;2023-08-07T10:13:51;30.60;97.40
35129;DHT22;21301;43.626;10.580;2023-08-07T10:16:17;30.80;97.40
35129;DHT22;21301;43.626;10.580;2023-08-07T10:18:44;31.40;96.80
35129;DHT22;21301;43.626;10.580;2023-08-07T10:21:15;32.00;94.10
35129;DHT22;21301;43.626;10.580;2023-08-07T10:23:53;32.30;88.70
35129;DHT22;21301;43.626;10.580;2023-08-07T10:26:40;32.30;82.20
35129;DHT22;21301;43.626;10.580;2023-08-07T10:35:29;32.10;67.30
35129;DHT22;21301;43.626;10.580;2023-08-07T10:38:08;32.30;72.40
35129;DHT22;21301;43.626;10.580;2023-08-07T10:43:49;32.30;65.10
35129;DHT22;21301;43.626;10.580;2023-08-07T10:46:17;32.30;63.20
35129;DHT22;21301;43.626;10.580;2023-08-07T10:48:46;32.60;61.30
35129;DHT22;21301;43.626;10.580;2023-08-07T10:51:32;32.30;54.50
35129;DHT22;21301;43.626;10.580;2023-08-07T10:53:59;31.80;48.70
35129;DHT22;21301;43.626;10.580;2023-08-07T10:56:32;32.60;50.50
35129;DHT22;21301;43.626;10.580;2023-08-07T10:59:13;32.90;47.30
35129;DHT22;21301;43.626;10.580;2023-08-07T11:04:44;33.00;40.10
35129;DHT22;21301;43.626;10.580;2023-08-07T11:07:49;32.80;37.60
35129;DHT22;21301;43.626;10.580;2023-08-07T11:10:16;32.50;33.50
35129;DHT22;21301;43.626;10.580;2023-08-07T11:12:44;31.90;33.40
35129;DHT22;21301;43.626;10.580;2023-08-07T11:15:24;31.40;37.70
35129;DHT22;21301;43.626;10.580;2023-08-07T11:18:16;31.40;35.60
35129;DHT22;21301;43.626;10.580;2023-08-07T11:20:55;31.00;32.00
35129;DHT22;21301;43.626;10.580;2023-08-07T11:26:35;31.00;30.80
35129;DHT22;21301;43.626;10.580;2023-08-07T11:32:49;30.60;36.20
35129;DHT22;21301;43.626;10.580;2023-08-07T11:35:16;31.40;37.90
35129;DHT22;21301;43.626;10.580;2023-08-07T11:37:48;31.10;37.70
35129;DHT22;21301;43.626;10.580;2023-08-07T11:40:13;31.00;35.50
35129;DHT22;21301;43.626;10.580;2023-08-07T11:42:42;30.50;38.70
35129;DHT22;21301;43.626;10.580;2023-08-07T11:49:05;30.70;42.00
35129;DHT22;21301;43.626;10.580;2023-08-07T11:51:43;31.10;42.50
35129;DHT22;21301;43.626;10.580;2023-08-07T11:54:29;31.00;42.30
35129;DHT22;21301;43.626;10.580;2023-08-07T12:00:32;30.00;43.40
35129;DHT22;21301;43.626;10.580;2023-08-07T12:06:18;30.40;44.20
35129;DHT22;21301;43.626;10.580;2023-08-07T12:08:57;30.70;43.60
35129;DHT22;21301;43.626;10.580;2023-08-07T12:23:21;30.00;25.20
35129;DHT22;21301;43.626;10.580;2023-08-07T12:25:54;29.80;21.10
35129;DHT22;21301;43.626;10.580;2023-08-07T12:32:17;30.00;22.40
35129;DHT22;21301;43.626;10.580;2023-08-07T12:34:43;30.40;22.40
35129;DHT22;21301;43.626;10.580;2023-08-07T12:37:25;30.70;23.40
35129;DHT22;21301;43.626;10.580;2023-08-07T12:40:03;30.70;19.00
35129;DHT22;21301;43.626;10.580;2023-08-07T12:46:19;29.90;15.80
35129;DHT22;21301;43.626;10.580;2023-08-07T12:48:50;29.90;14.00
35129;DHT22;21301;43.626;10.580;2023-08-07T12:54:11;29.50;7.60
35129;DHT22;21301;43.626;10.580;2023-08-07T13:00:34;29.80;10.80
35129;DHT22;21301;43.626;10.580;2023-08-07T13:03:01;29.90;9.50
35129;DHT22;21301;43.626;10.580;2023-08-07T13:05:28;29.60;8.70
35129;DHT22;21301;43.626;10.580;2023-08-07T13:07:54;29.30;7.10
35129;DHT22;21301;43.626;10.580;2023-08-07T13:10:20;29.10;8.50
35129;DHT22;21301;43.626;10.580;2023-08-07T13:12:51;29.10;8.10
35129;DHT22;21301;43.626;10.580;2023-08-07T13:15:33;29.30;7.70
35129;DHT22;21301;43.626;10.580;2023-08-07T13:25:40;28.90;8.70
35129;DHT22;21301;43.626;10.580;2023-08-07T13:32:02;29.20;11.20
35129;DHT22;21301;43.626;10.580;2023-08-07T13:34:35;29.30;9.10
35129;DHT22;21301;43.626;10.580;2023-08-07T13:37:01;29.30;10.30
35129;DHT22;21301;43.626;10.580;2023-08-07T13:39:27;29.30;9.50
35129;DHT22;21301;43.626;10.580;2023-08-07T13:41:53;29.30;8.50
35129;DHT22;21301;43.626;10.580;2023-08-07T13:44:19;29.00;7.90
35129;DHT22;21301;43.626;10.580;2023-08-07T13:46:46;29.00;6.60
35129;DHT22;21301;43.626;10.580;2023-08-07T13:49:17;29.10;9.00
35129;DHT22;21301;43.626;10.580;2023-08-07T13:55:29;29.30;7.80
35129;DHT22;21301;43.626;10.580;2023-08-07T14:01:51;29.60;7.90
35129;DHT22;21301;43.626;10.580;2023-08-07T14:04:18;29.40;8.60
35129;DHT22;21301;43.626;10.580;2023-08-07T14:06:45;29.30;7.10
35129;DHT22;21301;43.626;10.580;2023-08-07T14:09:11;29.10;6.60
35129;DHT22;21301;43.626;10.580;2023-08-07T14:11:38;29.10;6.20
35129;DHT22;21301;43.626;10.580;2023-08-07T14:14:03;29.00;6.20
35129;DHT22;21301;43.626;10.580;2023-08-07T14:16:29;29.30;6.30
35129;DHT22;21301;43.626;10.580;2023-08-07T14:18:55;29.50;6.50
35129;DHT22;21301;43.626;10.580;2023-08-07T14:21:21;29.20;5.80
35129;DHT22;21301;43.626;10.580;2023-08-07T14:23:47;28.90;6.10
35129;DHT22;21301;43.626;10.580;2023-08-07T14:26:13;29.00;6.40
35129;DHT22;21301;43.626;10.580;2023-08-07T14:28:39;29.00;6.70
35129;DHT22;21301;43.626;10.580;2023-08-07T14:31:08;28.80;5.70
35129;DHT22;21301;43.626;10.580;2023-08-07T14:33:34;28.70;6.00
35129;DHT22;21301;43.626;10.580;2023-08-07T14:36:00;28.70;6.30
35129;DHT22;21301;43.626;10.580;2023-08-07T14:38:26;28.80;5.90
35129;DHT22;21301;43.626;10.580;2023-08-07T14:40:53;28.70;5.80
35129;DHT22;21301;43.626;10.580;2023-08-07T14:43:19;28.60;6.10
35129;DHT22;21301;43.626;10.580;2023-08-07T14:45:45;28.70;5.10
35129;DHT22;21301;43.626;10.580;2023-08-07T14:48:12;28.50;4.50
35129;DHT22;21301;43.626;10.580;2023-08-07T14:50:39;28.60;4.50
35129;DHT22;21301;43.626;10.580;2023-08-07T14:53:06;28.50;2.90
35129;DHT22;21301;43.626;10.580;2023-08-07T14:55:32;28.50;3.20
35129;DHT22;21301;43.626;10.580;2023-08-07T14:57:58;28.70;3.60
35129;DHT22;21301;43.626;10.580;2023-08-07T15:00:24;28.80;2.90
35129;DHT22;21301;43.626;10.580;2023-08-07T15:02:50;29.00;1.30
35129;DHT22;21301;43.626;10.580;2023-08-07T15:05:16;28.90;1.30
35129;DHT22;21301;43.626;10.580;2023-08-07T15:07:41;28.60;1.00
35129;DHT22;21301;43.626;10.580;2023-08-07T15:10:08;28.60;1.00
35129;DHT22;21301;43.626;10.580;2023-08-07T15:12:35;28.50;1.00
35129;DHT22;21301;43.626;10.580;2023-08-07T15:15:02;28.60;1.00
35129;DHT22;21301;43.626;10.580;2023-08-07T15:17:33;28.50;1.00
35129;DHT22;21301;43.626;10.580;2023-08-07T15:20:46;28.60;1.00
35129;DHT22;21301;43.626;10.580;2023-08-07T15:27:01;28.40;1.00
35129;DHT22;21301;43.626;10.580;2023-08-07T15:33:22;28.30;1.00
35129;DHT22;21301;43.626;10.580;2023-08-07T15:35:48;28.40;1.00
35129;DHT22;21301;43.626;10.580;2023-08-07T15:38:16;28.50;1.00
35129;DHT22;21301;43.626;10.580;2023-08-07T15:40:42;28.50;1.00
35129;DHT22;21301;43.626;10.580;2023-08-07T15:47:03;28.40;1.00
35129;DHT22;21301;43.626;10.580;2023-08-07T15:49:29;28.30;1.00
35129;DHT22;21301;43.626;10.580;2023-08-07T15:51:55;28.30;1.00
35129;DHT22;21301;43.626;10.580;2023-08-07T15:54:21;28.20;1.00
35129;DHT22;21301;43.626;10.580;2023-08-07T15:56:47;28.30;1.00
35129;DHT22;21301;43.626;10.580;2023-08-07T15:59:13;28.20;1.00
35129;DHT22;21301;43.626;10.580;2023-08-07T16:01:39;28.10;1.00
35129;DHT22;21301;43.626;10.580;2023-08-07T16:04:04;28.40;1.00
35129;DHT22;21301;43.626;10.580;2023-08-07T16:06:30;28.30;1.00
35129;DHT22;21301;43.626;10.580;2023-08-07T16:08:56;28.40;1.00
35129;DHT22;21301;43.626;10.580;2023-08-07T16:11:23;28.70;1.00
35129;DHT22;21301;43.626;10.580;2023-08-07T16:13:49;28.70;1.00
35129;DHT22;21301;43.626;10.580;2023-08-07T16:16:15;28.50;1.00
35129;DHT22;21301;43.626;10.580;2023-08-07T16:18:41;28.30;1.00
35129;DHT22;21301;43.626;10.580;2023-08-07T16:21:07;28.20;1.00
35129;DHT22;21301;43.626;10.580;2023-08-07T16:23:33;28.20;1.00
35129;DHT22;21301;43.626;10.580;2023-08-07T16:25:59;28.30;1.00
35129;DHT22;21301;43.626;10.580;2023-08-07T16:28:25;28.30;1.00
35129;DHT22;21301;43.626;10.580;2023-08-07T16:30:51;28.60;1.00
35129;DHT22;21301;43.626;10.580;2023-08-07T16:33:16;28.30;1.00
35129;DHT22;21301;43.626;10.580;2023-08-07T16:35:42;28.30;1.00
35129;DHT22;21301;43.626;10.580;2023-08-07T16:38:08;28.00;1.00
35129;DHT22;21301;43.626;10.580;2023-08-07T16:40:34;27.80;1.00
35129;DHT22;21301;43.626;10.580;2023-08-07T16:43:03;27.90;1.00
35129;DHT22;21301;43.626;10.580;2023-08-07T16:45:31;27.70;1.00
35129;DHT22;21301;43.626;10.580;2023-08-07T16:51:06;27.80;1.00
35129;DHT22;21301;43.626;10.580;2023-08-07T16:53:32;27.80;1.00
35129;DHT22;21301;43.626;10.580;2023-08-07T16:56:04;27.90;1.00
35129;DHT22;21301;43.626;10.580;2023-08-07T16:58:35;27.70;1.00
35129;DHT22;21301;43.626;10.580;2023-08-07T17:01:02;27.70;1.00
35129;DHT22;21301;43.626;10.580;2023-08-07T17:03:28;27.70;1.00
35129;DHT22;21301;43.626;10.580;2023-08-07T17:05:54;27.70;1.00
35129;DHT22;21301;43.626;10.580;2023-08-07T17:08:21;27.60;1.00
35129;DHT22;21301;43.626;10.580;2023-08-07T17:10:48;27.60;1.00
35129;DHT22;21301;43.626;10.580;2023-08-07T17:13:15;27.50;1.00
35129;DHT22;21301;43.626;10.580;2023-08-07T17:15:42;27.50;1.00
35129;DHT22;21301;43.626;10.580;2023-08-07T17:18:08;27.50;1.00
35129;DHT22;21301;43.626;10.580;2023-08-07T17:20:34;27.50;1.00
35129;DHT22;21301;43.626;10.580;2023-08-07T17:23:00;27.50;1.00
35129;DHT22;21301;43.626;10.580;2023-08-07T17:25:26;27.70;1.00